sensor_id;sensor_type;location;lat;lon;timestamp;pressure;altitude;pressure_sealevel;temperature;humidity
48636;BME280;34429;52.332;5.614;2022-08-01T00:01:52;101609.19;;;19.37;100.00
48636;BME280;34429;52.332;5.614;2022-08-01T00:04:20;101600.53;;;19.34;100.00
48636;BME280;34429;52.332;5.614;2022-08-01T00:06:51;101605.31;;;19.32;100.00
48636;BME280;34429;52.332;5.614;2022-08-01T00:09:19;101606.81;;;19.34;100.00
48636;BME280;34429;52.332;5.614;2022-08-01T00:11:48;101601.91;;;19.30;100.00
48636;BME280;34429;52.332;5.614;2022-08-01T00:14:16;101598.63;;;19.34;100.00
48636;BME280;34429;52.332;5.614;2022-08-01T00:16:44;101604.09;;;19.34;100.00
48636;BME280;34429;52.332;5.614;2022-08-01T00:19:12;101603.75;;;19.37;100.00
48636;BME280;34429;52.332;5.614;2022-08-01T00:21:41;101604.63;;;19.38;100.00
48636;BME280;34429;52.332;5.614;2022-08-01T00:24:12;101595.38;;;19.39;100.00
48636;BME280;34429;52.332;5.614;2022-08-01T00:26:40;101608.34;;;19.37;100.00
48636;BME280;34429;52.332;5.614;2022-08-01T00:29:08;101604.44;;;19.31;100.00
48636;BME280;34429;52.332;5.614;2022-08-01T00:31:37;101602.59;;;19.32;100.00
48636;BME280;34429;52.332;5.614;2022-08-01T00:34:05;101616.19;;;19.40;100.00
48636;BME280;34429;52.332;5.614;2022-08-01T00:36:33;101604.63;;;19.38;100.00
48636;BME280;34429;52.332;5.614;2022-08-01T00:39:02;101611.09;;;19.29;100.00
48636;BME280;34429;52.332;5.614;2022-08-01T00:41:33;101614.53;;;19.31;100.00
48636;BME280;34429;52.332;5.614;2022-08-01T00:44:05;101610.78;;;19.32;100.00
48636;BME280;34429;52.332;5.614;2022-08-01T00:46:33;101608.19;;;19.38;100.00
48636;BME280;34429;52.332;5.614;2022-08-01T00:49:02;101601.06;;;19.29;100.00
48636;BME280;34429;52.332;5.614;2022-08-01T00:51:31;101599.03;;;19.23;100.00
48636;BME280;34429;52.332;5.614;2022-08-01T00:53:59;101601.94;;;19.21;100.00
48636;BME280;34429;52.332;5.614;2022-08-01T00:56:28;101611.44;;;19.25;100.00
48636;BME280;34429;52.332;5.614;2022-08-01T00:58:59;101610.13;;;19.21;100.00
48636;BME280;34429;52.332;5.614;2022-08-01T01:01:27;101615.22;;;19.24;100.00
48636;BME280;34429;52.332;5.614;2022-08-01T01:03:56;101606.34;;;19.22;100.00
48636;BME280;34429;52.332;5.614;2022-08-01T01:06:27;101612.50;;;19.24;100.00
48636;BME280;34429;52.332;5.614;2022-08-01T01:09:13;101618.97;;;19.23;100.00
48636;BME280;34429;52.332;5.614;2022-08-01T01:11:49;101614.88;;;19.28;100.00
48636;BME280;34429;52.332;5.614;2022-08-01T01:14:32;101609.41;;;19.28;100.00
48636;BME280;34429;52.332;5.614;2022-08-01T01:17:05;101620.66;;;19.33;100.00
48636;BME280;34429;52.332;5.614;2022-08-01T01:19:39;101621.03;;;19.21;100.00
48636;BME280;34429;52.332;5.614;2022-08-01T01:22:22;101624.78;;;19.20;100.00
48636;BME280;34429;52.332;5.614;2022-08-01T01:25:17;101623.44;;;19.16;100.00
48636;BME280;34429;52.332;5.614;2022-08-01T01:27:57;101619.50;;;19.19;100.00
48636;BME280;34429;52.332;5.614;2022-08-01T01:30:33;101615.59;;;19.13;100.00
48636;BME280;34429;52.332;5.614;2022-08-01T01:33:03;101619.16;;;19.14;100.00
48636;BME280;34429;52.332;5.614;2022-08-01T01:35:38;101619.03;;;19.07;100.00
48636;BME280;34429;52.332;5.614;2022-08-01T01:38:15;101617.31;;;19.14;100.00
48636;BME280;34429;52.332;5.614;2022-08-01T01:40:46;101617.31;;;19.06;100.00
48636;BME280;34429;52.332;5.614;2022-08-01T01:43:15;101618.31;;;19.13;100.00
48636;BME280;34429;52.332;5.614;2022-08-01T01:45:49;101615.41;;;19.15;100.00
48636;BME280;34429;52.332;5.614;2022-08-01T01:48:20;101612.84;;;19.21;100.00
48636;BME280;34429;52.332;5.614;2022-08-01T01:50:52;101620.38;;;19.11;100.00
48636;BME280;34429;52.332;5.614;2022-08-01T01:53:22;101621.94;;;19.05;100.00
48636;BME280;34429;52.332;5.614;2022-08-01T01:55:52;101622.41;;;19.09;100.00
48636;BME280;34429;52.332;5.614;2022-08-01T01:58:22;101625.19;;;19.01;100.00
48636;BME280;34429;52.332;5.614;2022-08-01T02:00:56;101622.75;;;19.14;100.00
48636;BME280;34429;52.332;5.614;2022-08-01T02:03:28;101618.31;;;19.13;100.00
48636;BME280;34429;52.332;5.614;2022-08-01T02:05:57;101615.94;;;19.02;100.00
48636;BME280;34429;52.332;5.614;2022-08-01T02:08:29;101612.19;;;19.03;100.00
48636;BME280;34429;52.332;5.614;2022-08-01T02:10:59;101617.66;;;19.03;100.00
48636;BME280;34429;52.332;5.614;2022-08-01T02:13:41;101621.75;;;19.07;100.00
48636;BME280;34429;52.332;5.614;2022-08-01T02:16:13;101625.50;;;19.06;100.00
48636;BME280;34429;52.332;5.614;2022-08-01T02:18:43;101624.13;;;19.10;100.00
48636;BME280;34429;52.332;5.614;2022-08-01T02:21:13;101620.38;;;19.11;100.00
48636;BME280;34429;52.332;5.614;2022-08-01T02:23:44;101613.69;;;19.14;100.00
48636;BME280;34429;52.332;5.614;2022-08-01T02:26:14;101616.97;;;19.09;100.00
48636;BME280;34429;52.332;5.614;2022-08-01T02:28:48;101621.88;;;19.14;100.00
48636;BME280;34429;52.332;5.614;2022-08-01T02:31:21;101628.41;;;19.13;100.00
48636;BME280;34429;52.332;5.614;2022-08-01T02:33:56;101619.16;;;19.14;100.00
48636;BME280;34429;52.332;5.614;2022-08-01T02:36:26;101627.53;;;19.12;100.00
48636;BME280;34429;52.332;5.614;2022-08-01T02:38:57;101627.53;;;19.12;100.00
48636;BME280;34429;52.332;5.614;2022-08-01T02:41:27;101636.06;;;19.17;100.00
48636;BME280;34429;52.332;5.614;2022-08-01T02:43:59;101628.03;;;19.16;100.00
48636;BME280;34429;52.332;5.614;2022-08-01T02:46:36;101634.69;;;19.13;100.00
48636;BME280;34429;52.332;5.614;2022-08-01T02:49:07;101626.50;;;19.13;100.00
48636;BME280;34429;52.332;5.614;2022-08-01T02:51:39;101626.34;;;19.15;100.00
48636;BME280;34429;52.332;5.614;2022-08-01T02:54:10;101634.19;;;19.10;100.00
48636;BME280;34429;52.332;5.614;2022-08-01T02:56:39;101634.69;;;19.13;100.00
48636;BME280;34429;52.332;5.614;2022-08-01T02:59:11;101629.59;;;19.10;100.00
48636;BME280;34429;52.332;5.614;2022-08-01T03:01:44;101626.69;;;19.12;100.00
48636;BME280;34429;52.332;5.614;2022-08-01T03:04:14;101629.72;;;19.17;100.00
48636;BME280;34429;52.332;5.614;2022-08-01T03:06:45;101634.19;;;19.10;100.00
48636;BME280;34429;52.332;5.614;2022-08-01T03:09:15;101633.50;;;19.07;100.00
48636;BME280;34429;52.332;5.614;2022-08-01T03:11:46;101629.22;;;19.13;100.00
48636;BME280;34429;52.332;5.614;2022-08-01T03:14:18;101623.78;;;19.13;100.00
48636;BME280;34429;52.332;5.614;2022-08-01T03:16:51;101624.09;;;19.18;100.00
48636;BME280;34429;52.332;5.614;2022-08-01T03:19:22;101623.28;;;19.10;100.00
48636;BME280;34429;52.332;5.614;2022-08-01T03:21:52;101625.31;;;19.07;100.00
48636;BME280;34429;52.332;5.614;2022-08-01T03:24:21;101621.75;;;19.07;100.00
48636;BME280;34429;52.332;5.614;2022-08-01T03:26:51;101623.78;;;19.05;100.00
48636;BME280;34429;52.332;5.614;2022-08-01T03:29:23;101628.22;;;19.06;100.00
48636;BME280;34429;52.332;5.614;2022-08-01T03:31:56;101622.25;;;19.11;100.00
48636;BME280;34429;52.332;5.614;2022-08-01T03:34:25;101624.13;;;19.10;100.00
48636;BME280;34429;52.332;5.614;2022-08-01T03:36:57;101624.47;;;19.07;100.00
48636;BME280;34429;52.332;5.614;2022-08-01T03:39:30;101631.97;;;19.05;100.00
48636;BME280;34429;52.332;5.614;2022-08-01T03:42:04;101628.56;;;19.11;100.00
48636;BME280;34429;52.332;5.614;2022-08-01T03:44:35;101632.97;;;19.12;100.00
48636;BME280;34429;52.332;5.614;2022-08-01T03:47:09;101636.41;;;19.14;100.00
48636;BME280;34429;52.332;5.614;2022-08-01T03:49:42;101652.44;;;19.17;100.00
48636;BME280;34429;52.332;5.614;2022-08-01T03:52:12;101652.28;;;18.94;100.00
48636;BME280;34429;52.332;5.614;2022-08-01T03:54:46;101650.03;;;18.65;100.00
48636;BME280;34429;52.332;5.614;2022-08-01T03:57:17;101653.81;;;18.55;100.00
48636;BME280;34429;52.332;5.614;2022-08-01T03:59:46;101658.56;;;18.45;100.00
48636;BME280;34429;52.332;5.614;2022-08-01T04:02:18;101661.44;;;18.27;100.00
48636;BME280;34429;52.332;5.614;2022-08-01T04:04:47;101654.41;;;18.16;100.00
48636;BME280;34429;52.332;5.614;2022-08-01T04:07:23;101669.53;;;18.02;100.00
48636;BME280;34429;52.332;5.614;2022-08-01T04:09:51;101668.38;;;18.05;100.00
48636;BME280;34429;52.332;5.614;2022-08-01T04:12:20;101659.84;;;18.08;100.00
48636;BME280;34429;52.332;5.614;2022-08-01T04:14:49;101660.03;;;18.15;100.00
48636;BME280;34429;52.332;5.614;2022-08-01T04:17:20;101664.25;;;18.09;100.00
48636;BME280;34429;52.332;5.614;2022-08-01T04:19:49;101663.25;;;18.10;100.00
48636;BME280;34429;52.332;5.614;2022-08-01T04:22:17;101670.03;;;18.06;100.00
48636;BME280;34429;52.332;5.614;2022-08-01T04:24:48;101674.47;;;18.07;100.00
48636;BME280;34429;52.332;5.614;2022-08-01T04:27:21;101672.59;;;18.08;100.00
48636;BME280;34429;52.332;5.614;2022-08-01T04:29:52;101663.97;;;18.20;100.00
48636;BME280;34429;52.332;5.614;2022-08-01T04:32:25;101666.88;;;18.27;100.00
48636;BME280;34429;52.332;5.614;2022-08-01T04:34:55;101670.13;;;18.31;100.00
48636;BME280;34429;52.332;5.614;2022-08-01T04:37:25;101673.88;;;18.38;100.00
48636;BME280;34429;52.332;5.614;2022-08-01T04:39:56;101684.28;;;18.43;100.00
48636;BME280;34429;52.332;5.614;2022-08-01T04:42:25;101678.47;;;18.46;100.00
48636;BME280;34429;52.332;5.614;2022-08-01T04:44:53;101679.34;;;18.54;100.00
48636;BME280;34429;52.332;5.614;2022-08-01T04:47:25;101680.03;;;18.48;100.00
48636;BME280;34429;52.332;5.614;2022-08-01T04:49:56;101690.94;;;18.56;100.00
48636;BME280;34429;52.332;5.614;2022-08-01T04:52:33;101687.72;;;18.61;100.00
48636;BME280;34429;52.332;5.614;2022-08-01T04:55:01;101685.16;;;18.68;100.00
48636;BME280;34429;52.332;5.614;2022-08-01T04:57:31;101690.63;;;18.60;100.00
48636;BME280;34429;52.332;5.614;2022-08-01T05:00:00;101684.47;;;18.66;100.00
48636;BME280;34429;52.332;5.614;2022-08-01T05:02:30;101684.47;;;18.74;100.00
48636;BME280;34429;52.332;5.614;2022-08-01T05:04:59;101691.81;;;18.73;100.00
48636;BME280;34429;52.332;5.614;2022-08-01T05:07:27;101689.91;;;18.74;100.00
48636;BME280;34429;52.332;5.614;2022-08-01T05:09:55;101686.19;;;18.75;100.00
48636;BME280;34429;52.332;5.614;2022-08-01T05:12:24;101688.91;;;18.83;100.00
48636;BME280;34429;52.332;5.614;2022-08-01T05:14:52;101690.66;;;18.93;100.00
48636;BME280;34429;52.332;5.614;2022-08-01T05:17:21;101689.59;;;19.02;100.00
48636;BME280;34429;52.332;5.614;2022-08-01T05:19:52;101692.00;;;19.05;100.00
48636;BME280;34429;52.332;5.614;2022-08-01T05:22:20;101687.72;;;19.11;100.00
48636;BME280;34429;52.332;5.614;2022-08-01T05:24:51;101690.97;;;19.14;100.00
48636;BME280;34429;52.332;5.614;2022-08-01T05:27:20;101709.41;;;18.96;100.00
48636;BME280;34429;52.332;5.614;2022-08-01T05:29:48;101701.41;;;19.02;100.00
48636;BME280;34429;52.332;5.614;2022-08-01T05:32:17;101704.97;;;19.03;100.00
48636;BME280;34429;52.332;5.614;2022-08-01T05:34:45;101697.44;;;19.13;100.00
48636;BME280;34429;52.332;5.614;2022-08-01T05:37:16;101696.97;;;19.10;100.00
48636;BME280;34429;52.332;5.614;2022-08-01T05:39:44;101705.97;;;19.18;100.00
48636;BME280;34429;52.332;5.614;2022-08-01T05:42:12;101704.25;;;19.25;100.00
48636;BME280;34429;52.332;5.614;2022-08-01T05:44:41;101704.91;;;19.44;100.00
48636;BME280;34429;52.332;5.614;2022-08-01T05:47:09;101708.13;;;19.48;100.00
48636;BME280;34429;52.332;5.614;2022-08-01T05:49:37;101710.84;;;19.56;100.00
48636;BME280;34429;52.332;5.614;2022-08-01T05:52:06;101718.16;;;19.72;100.00
48636;BME280;34429;52.332;5.614;2022-08-01T05:54:37;101704.69;;;19.62;100.00
48636;BME280;34429;52.332;5.614;2022-08-01T05:57:06;101714.41;;;19.56;100.00
48636;BME280;34429;52.332;5.614;2022-08-01T05:59:34;101711.06;;;19.38;100.00
48636;BME280;34429;52.332;5.614;2022-08-01T06:02:02;101705.94;;;19.43;100.00
48636;BME280;34429;52.332;5.614;2022-08-01T06:04:30;101710.38;;;19.52;100.00
48636;BME280;34429;52.332;5.614;2022-08-01T06:06:59;101719.69;;;19.66;100.00
48636;BME280;34429;52.332;5.614;2022-08-01T06:09:27;101719.16;;;19.71;100.00
48636;BME280;34429;52.332;5.614;2022-08-01T06:11:58;101724.13;;;19.84;100.00
48636;BME280;34429;52.332;5.614;2022-08-01T06:14:26;101723.28;;;19.83;100.00
48636;BME280;34429;52.332;5.614;2022-08-01T06:16:55;101724.31;;;19.57;100.00
48636;BME280;34429;52.332;5.614;2022-08-01T06:19:23;101725.72;;;19.45;100.00
48636;BME280;34429;52.332;5.614;2022-08-01T06:21:51;101726.44;;;19.31;100.00
48636;BME280;34429;52.332;5.614;2022-08-01T06:24:20;101725.06;;;19.18;100.00
48636;BME280;34429;52.332;5.614;2022-08-01T06:26:49;101727.13;;;19.24;100.00
48636;BME280;34429;52.332;5.614;2022-08-01T06:29:20;101729.84;;;19.41;100.00
48636;BME280;34429;52.332;5.614;2022-08-01T06:31:48;101735.59;;;19.63;100.00
48636;BME280;34429;52.332;5.614;2022-08-01T06:34:16;101735.41;;;19.64;100.00
48636;BME280;34429;52.332;5.614;2022-08-01T06:36:44;101733.41;;;19.50;100.00
48636;BME280;34429;52.332;5.614;2022-08-01T06:39:13;101737.00;;;19.09;100.00
48636;BME280;34429;52.332;5.614;2022-08-01T06:41:41;101743.63;;;18.82;100.00
48636;BME280;34429;52.332;5.614;2022-08-01T06:44:11;101746.03;;;18.85;100.00
48636;BME280;34429;52.332;5.614;2022-08-01T06:46:42;101751.66;;;18.91;100.00
48636;BME280;34429;52.332;5.614;2022-08-01T06:49:10;101753.41;;;19.01;100.00
48636;BME280;34429;52.332;5.614;2022-08-01T06:51:39;101759.53;;;19.11;100.00
48636;BME280;34429;52.332;5.614;2022-08-01T06:54:07;101752.19;;;19.03;100.00
48636;BME280;34429;52.332;5.614;2022-08-01T06:56:35;101760.88;;;19.15;100.00
48636;BME280;34429;52.332;5.614;2022-08-01T06:59:03;101752.88;;;18.89;100.00
48636;BME280;34429;52.332;5.614;2022-08-01T07:01:32;101760.69;;;18.84;100.00
48636;BME280;34429;52.332;5.614;2022-08-01T07:04:03;101761.94;;;18.98;100.00
48636;BME280;34429;52.332;5.614;2022-08-01T07:06:31;101761.25;;;19.20;100.00
48636;BME280;34429;52.332;5.614;2022-08-01T07:08:59;101763.63;;;19.15;100.00
48636;BME280;34429;52.332;5.614;2022-08-01T07:11:29;101766.34;;;19.07;100.00
48636;BME280;34429;52.332;5.614;2022-08-01T07:13:57;101773.19;;;19.28;100.00
48636;BME280;34429;52.332;5.614;2022-08-01T07:16:26;101771.31;;;19.20;100.00
48636;BME280;34429;52.332;5.614;2022-08-01T07:18:54;101766.34;;;19.07;100.00
48636;BME280;34429;52.332;5.614;2022-08-01T07:21:25;101768.41;;;19.13;100.00
48636;BME280;34429;52.332;5.614;2022-08-01T07:23:53;101769.88;;;18.83;100.00
48636;BME280;34429;52.332;5.614;2022-08-01T07:26:21;101778.53;;;18.62;100.00
48636;BME280;34429;52.332;5.614;2022-08-01T07:28:50;101782.63;;;18.66;100.00
48636;BME280;34429;52.332;5.614;2022-08-01T07:31:18;101778.22;;;18.73;100.00
48636;BME280;34429;52.332;5.614;2022-08-01T07:33:46;101769.41;;;18.87;100.00
48636;BME280;34429;52.332;5.614;2022-08-01T07:36:15;101787.78;;;18.77;100.00
48636;BME280;34429;52.332;5.614;2022-08-01T07:38:46;101786.13;;;18.93;100.00
48636;BME280;34429;52.332;5.614;2022-08-01T07:41:15;101792.28;;;19.03;100.00
48636;BME280;34429;52.332;5.614;2022-08-01T07:43:43;101785.69;;;18.71;100.00
48636;BME280;34429;52.332;5.614;2022-08-01T07:46:12;101798.00;;;18.67;100.00
48636;BME280;34429;52.332;5.614;2022-08-01T07:48:41;101795.88;;;19.12;100.00
48636;BME280;34429;52.332;5.614;2022-08-01T07:51:09;101792.28;;;19.52;100.00
48636;BME280;34429;52.332;5.614;2022-08-01T07:53:38;101791.53;;;19.75;100.00
48636;BME280;34429;52.332;5.614;2022-08-01T07:56:09;101805.38;;;19.82;100.00
48636;BME280;34429;52.332;5.614;2022-08-01T07:58:37;101801.28;;;19.69;100.00
48636;BME280;34429;52.332;5.614;2022-08-01T08:01:05;101805.34;;;19.98;100.00
48636;BME280;34429;52.332;5.614;2022-08-01T08:03:33;101803.28;;;20.08;100.00
48636;BME280;34429;52.332;5.614;2022-08-01T08:06:02;101812.50;;;20.07;100.00
48636;BME280;34429;52.332;5.614;2022-08-01T08:08:30;101806.59;;;19.54;100.00
48636;BME280;34429;52.332;5.614;2022-08-01T08:11:00;101803.31;;;19.92;100.00
48636;BME280;34429;52.332;5.614;2022-08-01T08:13:31;101802.66;;;19.73;100.00
48636;BME280;34429;52.332;5.614;2022-08-01T08:15:59;101808.44;;;19.95;100.00
48636;BME280;34429;52.332;5.614;2022-08-01T08:18:27;101802.28;;;20.01;100.00
48636;BME280;34429;52.332;5.614;2022-08-01T08:20:55;101805.72;;;19.87;100.00
48636;BME280;34429;52.332;5.614;2022-08-01T08:23:24;101804.66;;;19.96;100.00
48636;BME280;34429;52.332;5.614;2022-08-01T08:26:04;101811.31;;;20.02;100.00
48636;BME280;34429;52.332;5.614;2022-08-01T08:28:35;101805.22;;;19.83;100.00
48636;BME280;34429;52.332;5.614;2022-08-01T08:31:04;101815.63;;;19.88;100.00
48636;BME280;34429;52.332;5.614;2022-08-01T08:33:32;101815.03;;;20.09;100.00
48636;BME280;34429;52.332;5.614;2022-08-01T08:36:00;101821.00;;;20.12;100.00
48636;BME280;34429;52.332;5.614;2022-08-01T08:38:28;101817.22;;;20.61;100.00
48636;BME280;34429;52.332;5.614;2022-08-01T08:40:57;101827.41;;;20.76;100.00
48636;BME280;34429;52.332;5.614;2022-08-01T08:43:25;101824.97;;;20.89;100.00
48636;BME280;34429;52.332;5.614;2022-08-01T08:45:56;101829.00;;;20.93;100.00
48636;BME280;34429;52.332;5.614;2022-08-01T08:48:25;101819.56;;;20.73;100.00
48636;BME280;34429;52.332;5.614;2022-08-01T08:50:55;101828.81;;;20.63;100.00
48636;BME280;34429;52.332;5.614;2022-08-01T08:53:23;101826.75;;;20.65;100.00
48636;BME280;34429;52.332;5.614;2022-08-01T08:55:53;101830.97;;;21.08;100.00
48636;BME280;34429;52.332;5.614;2022-08-01T08:58:24;101821.13;;;21.22;100.00
48636;BME280;34429;52.332;5.614;2022-08-01T09:00:56;101816.69;;;21.44;100.00
48636;BME280;34429;52.332;5.614;2022-08-01T09:03:29;101824.06;;;21.20;100.00
48636;BME280;34429;52.332;5.614;2022-08-01T09:05:57;101822.25;;;21.27;100.00
48636;BME280;34429;52.332;5.614;2022-08-01T09:08:25;101821.31;;;21.20;100.00
48636;BME280;34429;52.332;5.614;2022-08-01T09:10:54;101822.81;;;21.23;100.00
48636;BME280;34429;52.332;5.614;2022-08-01T09:13:23;101819.47;;;21.59;100.00
48636;BME280;34429;52.332;5.614;2022-08-01T09:15:56;101829.00;;;22.16;100.00
48636;BME280;34429;52.332;5.614;2022-08-01T09:18:30;101821.03;;;21.91;100.00
48636;BME280;34429;52.332;5.614;2022-08-01T09:21:14;101828.09;;;21.70;100.00
48636;BME280;34429;52.332;5.614;2022-08-01T09:23:46;101839.88;;;21.56;100.00
48636;BME280;34429;52.332;5.614;2022-08-01T09:26:16;101845.81;;;21.13;100.00
48636;BME280;34429;52.332;5.614;2022-08-01T09:28:46;101847.47;;;20.99;100.00
48636;BME280;34429;52.332;5.614;2022-08-01T09:31:18;101836.56;;;21.38;100.00
48636;BME280;34429;52.332;5.614;2022-08-01T09:33:48;101840.94;;;21.47;100.00
48636;BME280;34429;52.332;5.614;2022-08-01T09:36:17;101829.91;;;22.08;100.00
48636;BME280;34429;52.332;5.614;2022-08-01T09:38:46;101833.94;;;21.67;100.00
48636;BME280;34429;52.332;5.614;2022-08-01T09:41:14;101832.09;;;21.98;100.00
48636;BME280;34429;52.332;5.614;2022-08-01T09:43:48;101835.78;;;22.20;100.00
48636;BME280;34429;52.332;5.614;2022-08-01T09:46:20;101836.53;;;21.84;100.00
48636;BME280;34429;52.332;5.614;2022-08-01T09:48:59;101852.66;;;22.47;100.00
48636;BME280;34429;52.332;5.614;2022-08-01T09:51:29;101850.81;;;22.69;100.00
48636;BME280;34429;52.332;5.614;2022-08-01T09:53:58;101844.16;;;23.15;100.00
48636;BME280;34429;52.332;5.614;2022-08-01T09:56:36;101860.81;;;23.56;100.00
48636;BME280;34429;52.332;5.614;2022-08-01T09:59:06;101856.94;;;23.07;100.00
48636;BME280;34429;52.332;5.614;2022-08-01T10:01:47;101851.94;;;22.60;100.00
48636;BME280;34429;52.332;5.614;2022-08-01T10:04:19;101848.56;;;22.28;100.00
48636;BME280;34429;52.332;5.614;2022-08-01T10:06:49;101847.44;;;22.37;100.00
48636;BME280;34429;52.332;5.614;2022-08-01T10:09:27;101848.75;;;22.92;100.00
48636;BME280;34429;52.332;5.614;2022-08-01T10:11:55;101846.84;;;23.30;100.00
48636;BME280;34429;52.332;5.614;2022-08-01T10:14:25;101847.91;;;23.57;100.00
48636;BME280;34429;52.332;5.614;2022-08-01T10:16:58;101856.59;;;23.32;100.00
48636;BME280;34429;52.332;5.614;2022-08-01T10:19:28;101855.38;;;22.98;100.00
48636;BME280;34429;52.332;5.614;2022-08-01T10:21:58;101851.03;;;22.89;100.00
48636;BME280;34429;52.332;5.614;2022-08-01T10:24:27;101854.66;;;22.74;100.00
48636;BME280;34429;52.332;5.614;2022-08-01T10:26:59;101859.97;;;23.34;100.00
48636;BME280;34429;52.332;5.614;2022-08-01T10:29:32;101856.72;;;23.95;100.00
48636;BME280;34429;52.332;5.614;2022-08-01T10:32:07;101857.13;;;23.42;100.00
48636;BME280;34429;52.332;5.614;2022-08-01T10:34:36;101858.22;;;23.26;100.00
48636;BME280;34429;52.332;5.614;2022-08-01T10:37:05;101861.13;;;23.47;100.00
48636;BME280;34429;52.332;5.614;2022-08-01T10:39:35;101863.34;;;23.79;100.00
48636;BME280;34429;52.332;5.614;2022-08-01T10:42:04;101864.91;;;23.67;100.00
48636;BME280;34429;52.332;5.614;2022-08-01T10:44:34;101858.50;;;23.60;100.00
48636;BME280;34429;52.332;5.614;2022-08-01T10:47:09;101871.72;;;23.50;100.00
48636;BME280;34429;52.332;5.614;2022-08-01T10:49:43;101867.88;;;22.86;100.00
48636;BME280;34429;52.332;5.614;2022-08-01T10:52:15;101858.72;;;22.79;100.00
48636;BME280;34429;52.332;5.614;2022-08-01T10:54:44;101862.41;;;22.86;100.00
48636;BME280;34429;52.332;5.614;2022-08-01T10:57:13;101873.66;;;22.76;100.00
48636;BME280;34429;52.332;5.614;2022-08-01T10:59:51;101862.16;;;23.02;100.00
48636;BME280;34429;52.332;5.614;2022-08-01T11:02:29;101867.19;;;22.62;100.00
48636;BME280;34429;52.332;5.614;2022-08-01T11:05:02;101865.09;;;23.01;100.00
48636;BME280;34429;52.332;5.614;2022-08-01T11:07:43;101863.91;;;22.88;100.00
48636;BME280;34429;52.332;5.614;2022-08-01T11:10:22;101871.22;;;22.81;100.00
48636;BME280;34429;52.332;5.614;2022-08-01T11:12:52;101861.75;;;22.84;100.00
48636;BME280;34429;52.332;5.614;2022-08-01T11:15:22;101870.75;;;22.78;100.00
48636;BME280;34429;52.332;5.614;2022-08-01T11:17:59;101865.03;;;22.94;100.00
48636;BME280;34429;52.332;5.614;2022-08-01T11:20:29;101858.56;;;23.67;100.00
48636;BME280;34429;52.332;5.614;2022-08-01T11:23:28;101861.53;;;23.65;100.00
48636;BME280;34429;52.332;5.614;2022-08-01T11:26:08;101869.13;;;23.41;100.00
48636;BME280;34429;52.332;5.614;2022-08-01T11:28:38;101871.88;;;23.63;100.00
48636;BME280;34429;52.332;5.614;2022-08-01T11:31:26;101874.09;;;24.03;100.00
48636;BME280;34429;52.332;5.614;2022-08-01T11:33:59;101877.22;;;23.71;100.00
48636;BME280;34429;52.332;5.614;2022-08-01T11:36:28;101884.31;;;23.59;100.00
48636;BME280;34429;52.332;5.614;2022-08-01T11:39:12;101876.97;;;23.66;100.00
48636;BME280;34429;52.332;5.614;2022-08-01T11:41:42;101885.75;;;23.33;100.00
48636;BME280;34429;52.332;5.614;2022-08-01T11:44:12;101876.69;;;22.81;100.00
48636;BME280;34429;52.332;5.614;2022-08-01T11:46:49;101876.59;;;22.74;100.00
48636;BME280;34429;52.332;5.614;2022-08-01T11:49:32;101873.03;;;23.75;100.00
48636;BME280;34429;52.332;5.614;2022-08-01T11:52:04;101881.19;;;23.90;100.00
48636;BME280;34429;52.332;5.614;2022-08-01T11:54:34;101875.84;;;24.10;100.00
48636;BME280;34429;52.332;5.614;2022-08-01T11:57:04;101874.06;;;23.96;100.00
48636;BME280;34429;52.332;5.614;2022-08-01T11:59:38;101876.53;;;23.91;86.85
48636;BME280;34429;52.332;5.614;2022-08-01T12:02:20;101877.91;;;23.52;100.00
48636;BME280;34429;52.332;5.614;2022-08-01T12:04:54;101880.03;;;23.78;100.00
48636;BME280;34429;52.332;5.614;2022-08-01T12:07:24;101882.03;;;23.91;100.00
48636;BME280;34429;52.332;5.614;2022-08-01T12:10:00;101877.84;;;23.95;100.00
48636;BME280;34429;52.332;5.614;2022-08-01T12:12:30;101884.50;;;24.42;98.81
48636;BME280;34429;52.332;5.614;2022-08-01T12:15:00;101890.22;;;24.82;100.00
48636;BME280;34429;52.332;5.614;2022-08-01T12:17:31;101893.22;;;24.94;95.17
48636;BME280;34429;52.332;5.614;2022-08-01T12:20:04;101885.84;;;25.08;82.38
48636;BME280;34429;52.332;5.614;2022-08-01T12:22:33;101896.06;;;25.28;87.07
48636;BME280;34429;52.332;5.614;2022-08-01T12:25:06;101894.53;;;24.98;79.58
48636;BME280;34429;52.332;5.614;2022-08-01T12:27:36;101896.94;;;24.66;68.84
48636;BME280;34429;52.332;5.614;2022-08-01T12:30:07;101894.13;;;24.60;94.67
48636;BME280;34429;52.332;5.614;2022-08-01T12:32:37;101891.28;;;24.46;85.71
48636;BME280;34429;52.332;5.614;2022-08-01T12:35:10;101897.00;;;24.87;84.38
48636;BME280;34429;52.332;5.614;2022-08-01T12:37:42;101900.16;;;25.99;69.18
48636;BME280;34429;52.332;5.614;2022-08-01T12:40:14;101894.63;;;25.72;65.84
48636;BME280;34429;52.332;5.614;2022-08-01T12:42:44;101895.84;;;25.23;68.66
48636;BME280;34429;52.332;5.614;2022-08-01T12:45:15;101885.63;;;25.03;67.14
48636;BME280;34429;52.332;5.614;2022-08-01T12:47:45;101884.66;;;25.31;78.13
48636;BME280;34429;52.332;5.614;2022-08-01T12:50:19;101892.31;;;25.69;67.81
48636;BME280;34429;52.332;5.614;2022-08-01T12:52:48;101889.91;;;25.26;65.97
48636;BME280;34429;52.332;5.614;2022-08-01T12:55:17;101890.41;;;26.10;73.70
48636;BME280;34429;52.332;5.614;2022-08-01T12:57:47;101884.88;;;25.36;66.28
48636;BME280;34429;52.332;5.614;2022-08-01T13:00:22;101890.28;;;24.96;90.35